GDANC VNLT-VNLK
Flight info
| Callsign | GDANC |
|---|---|
| Flight time | N/A |
| Altitude | 13500 |
| Route | DCT VFR RCOCAS |
| Aircraft | PC6/L-VGD/A |
Departure
| Time | 2025-12-13 16:01 |
|---|---|
| Airport | Langtang Airport (VNLT) |
Arrival
| Time | N/A |
|---|---|
| Airport | Tenzing-Hillary Airport (VNLK) |
| Time | Latitude | Longitude | Altitude | Speed | Heading |
|---|---|---|---|---|---|
| 2025-12-13 15:27 | 28.20066 | 85.58515 | 12514 ft | 0 kts | 359° |
| 2025-12-13 15:55 | 28.20077 | 85.58462 | 12512 ft | 8 kts | 277° |
| 2025-12-13 15:56 | 28.20080 | 85.58436 | 12511 ft | 0 kts | 275° |
| 2025-12-13 15:56 | 28.20081 | 85.58432 | 12511 ft | 0 kts | 275° |
| 2025-12-13 15:57 | 28.20083 | 85.58404 | 12510 ft | 0 kts | 274° |
| 2025-12-13 15:57 | 28.20089 | 85.58370 | 12508 ft | 9 kts | 288° |
| 2025-12-13 15:58 | 28.20092 | 85.58302 | 12505 ft | 0 kts | 123° |
| 2025-12-13 15:59 | 28.19923 | 85.58637 | 12524 ft | 46 kts | 135° |
| 2025-12-13 16:00 | 28.19572 | 85.59512 | 12602 ft | 76 kts | 90° |
| 2025-12-13 16:00 | 28.19541 | 85.60773 | 12868 ft | 86 kts | 88° |
| 2025-12-13 16:01 | 28.19554 | 85.61466 | 12989 ft | 92 kts | 84° |
| 2025-12-13 16:01 | 28.19918 | 85.62815 | 13261 ft | 103 kts | 63° |
| 2025-12-13 16:02 | 28.19467 | 85.63760 | 13536 ft | 114 kts | 270° |
| 2025-12-13 16:02 | 28.19421 | 85.61923 | 13904 ft | 114 kts | 263° |
| 2025-12-13 16:03 | 28.19156 | 85.60018 | 14140 ft | 123 kts | 268° |
| 2025-12-13 16:03 | 28.19324 | 85.58146 | 14417 ft | 122 kts | 292° |
| 2025-12-13 16:04 | 28.19788 | 85.56239 | 14567 ft | 131 kts | 271° |
| 2025-12-13 16:04 | 28.20316 | 85.54704 | 15038 ft | 107 kts | 358° |
| 2025-12-13 16:05 | 28.20735 | 85.56153 | 15222 ft | 112 kts | 102° |
| 2025-12-13 16:05 | 28.20519 | 85.56928 | 15448 ft | 106 kts | 105° |
| 2025-12-13 16:06 | 28.19418 | 85.59629 | 15474 ft | 137 kts | 108° |
| 2025-12-13 16:06 | 28.19086 | 85.61787 | 15470 ft | 141 kts | 85° |
| 2025-12-13 16:07 | 28.19535 | 85.63931 | 15543 ft | 137 kts | 72° |
| 2025-12-13 16:07 | 28.20109 | 85.65947 | 15675 ft | 132 kts | 68° |
| 2025-12-13 16:08 | 28.21062 | 85.67581 | 15847 ft | 118 kts | 344° |
| 2025-12-13 16:08 | 28.21174 | 85.65956 | 16048 ft | 104 kts | 245° |
| 2025-12-13 16:09 | 28.20761 | 85.65171 | 15803 ft | 134 kts | 236° |
| 2025-12-13 16:09 | 28.20279 | 85.63681 | 16435 ft | 89 kts | 255° |
| 2025-12-13 16:10 | 28.20263 | 85.61267 | 16067 ft | 93 kts | 290° |
| 2025-12-13 16:10 | 28.20634 | 85.59820 | 15852 ft | 96 kts | 274° |
| 2025-12-13 16:11 | 28.20516 | 85.58333 | 15714 ft | 95 kts | 268° |
| 2025-12-13 16:11 | 28.20466 | 85.56849 | 15596 ft | 91 kts | 269° |
| 2025-12-13 16:12 | 28.20950 | 85.55606 | 15624 ft | 88 kts | 7° |
| 2025-12-13 16:12 | 28.21419 | 85.55690 | 13620 ft | 51 kts | 312° |
| 2025-12-13 16:13 | 28.20066 | 85.58515 | 12512 ft | 0 kts | 359° |
| 2025-12-13 16:16 | 28.20073 | 85.58504 | 12510 ft | 8 kts | 284° |
| 2025-12-13 16:17 | 28.20091 | 85.58318 | 12509 ft | 10 kts | 163° |
| 2025-12-13 16:17 | 28.19733 | 85.58851 | 12544 ft | 71 kts | 139° |
| 2025-12-13 16:18 | 28.19559 | 85.60717 | 12885 ft | 103 kts | 79° |
| 2025-12-13 16:18 | 28.19756 | 85.62410 | 13210 ft | 111 kts | 66° |
| 2025-12-13 16:19 | 28.20319 | 85.64055 | 13607 ft | 110 kts | 65° |
| 2025-12-13 16:19 | 28.20965 | 85.65664 | 14008 ft | 110 kts | 57° |
| 2025-12-13 16:20 | 28.21403 | 85.67065 | 14396 ft | 99 kts | 144° |
| 2025-12-13 16:20 | 28.20726 | 85.66898 | 14365 ft | 116 kts | 233° |
| 2025-12-13 16:21 | 28.20212 | 85.64380 | 14900 ft | 112 kts | 280° |
| 2025-12-13 16:21 | 28.20340 | 85.63514 | 15084 ft | 111 kts | 276° |
| 2025-12-13 16:22 | 28.20189 | 85.61126 | 15445 ft | 115 kts | 266° |
| 2025-12-13 16:22 | 28.20183 | 85.60024 | 15641 ft | 113 kts | 276° |
| 2025-12-13 16:23 | 28.20238 | 85.58202 | 15966 ft | 111 kts | 261° |
| 2025-12-13 16:23 | 28.20249 | 85.56403 | 16163 ft | 118 kts | 294° |
| 2025-12-13 16:24 | 28.21616 | 85.55700 | 16303 ft | 126 kts | 26° |
| 2025-12-13 16:24 | 28.22092 | 85.56494 | 16357 ft | 129 kts | 86° |
| 2025-12-13 16:25 | 28.21487 | 85.58277 | 16715 ft | 120 kts | 114° |
| 2025-12-13 16:25 | 28.20716 | 85.59965 | 16952 ft | 121 kts | 117° |
| 2025-12-13 16:26 | 28.19956 | 85.62677 | 17286 ft | 121 kts | 84° |
| 2025-12-13 16:26 | 28.19863 | 85.64563 | 17592 ft | 115 kts | 84° |
| 2025-12-13 16:27 | 28.20334 | 85.66289 | 17929 ft | 104 kts | 55° |
| 2025-12-13 16:27 | 28.21613 | 85.66858 | 18077 ft | 109 kts | 330° |
| 2025-12-13 16:28 | 28.21703 | 85.65407 | 18204 ft | 107 kts | 229° |
| 2025-12-13 16:28 | 28.21215 | 85.64776 | 18314 ft | 106 kts | 223° |
| 2025-12-13 16:29 | 28.19851 | 85.64146 | 18454 ft | 112 kts | 182° |
| 2025-12-13 16:29 | 28.18326 | 85.64372 | 18575 ft | 117 kts | 164° |
| 2025-12-13 16:30 | 28.16176 | 85.65636 | 18707 ft | 125 kts | 150° |
| 2025-12-13 16:30 | 28.14647 | 85.66714 | 18712 ft | 132 kts | 145° |
| 2025-12-13 16:31 | 28.13500 | 85.68337 | 18722 ft | 135 kts | 117° |
| 2025-12-13 16:31 | 28.12573 | 85.70203 | 18723 ft | 137 kts | 120° |
| 2025-12-13 16:32 | 28.12084 | 85.71137 | 18723 ft | 138 kts | 120° |
| 2025-12-13 16:32 | 28.11107 | 85.73004 | 18727 ft | 138 kts | 120° |
| 2025-12-13 16:33 | 28.10144 | 85.74890 | 18730 ft | 139 kts | 120° |
| 2025-12-13 16:33 | 28.09228 | 85.76826 | 18730 ft | 141 kts | 116° |
| 2025-12-13 16:34 | 28.08044 | 85.79824 | 18731 ft | 139 kts | 112° |
| 2025-12-13 16:34 | 28.07301 | 85.81841 | 18730 ft | 138 kts | 112° |
| 2025-12-13 16:35 | 28.06559 | 85.83856 | 18736 ft | 140 kts | 113° |
| 2025-12-13 16:35 | 28.05808 | 85.85901 | 18737 ft | 140 kts | 113° |
| 2025-12-13 16:36 | 28.05432 | 85.86929 | 18728 ft | 142 kts | 112° |
| 2025-12-13 16:36 | 28.04692 | 85.88967 | 18728 ft | 140 kts | 112° |
| 2025-12-13 16:37 | 28.03947 | 85.91013 | 18730 ft | 140 kts | 112° |
| 2025-12-13 16:37 | 28.03201 | 85.93059 | 18731 ft | 140 kts | 112° |
| 2025-12-13 16:38 | 28.02212 | 85.95789 | 18709 ft | 140 kts | 112° |
| 2025-12-13 16:38 | 28.01465 | 85.97831 | 18703 ft | 140 kts | 112° |
| 2025-12-13 16:39 | 28.00710 | 85.99921 | 18705 ft | 147 kts | 112° |
| 2025-12-13 16:39 | 27.99912 | 86.02124 | 18714 ft | 152 kts | 112° |
| 2025-12-13 16:40 | 27.99115 | 86.04326 | 18708 ft | 151 kts | 112° |
| 2025-12-13 16:40 | 27.98719 | 86.05423 | 18705 ft | 150 kts | 112° |
| 2025-12-13 16:41 | 27.98092 | 86.07692 | 18711 ft | 154 kts | 105° |
| 2025-12-13 16:42 | 27.96903 | 86.12261 | 18699 ft | 142 kts | 113° |
| 2025-12-13 16:42 | 27.96472 | 86.13273 | 18697 ft | 143 kts | 118° |
| 2025-12-13 16:42 | 27.95521 | 86.15301 | 18697 ft | 146 kts | 123° |
| 2025-12-13 16:43 | 27.94287 | 86.17092 | 18697 ft | 144 kts | 129° |
| 2025-12-13 16:43 | 27.93031 | 86.18871 | 18706 ft | 144 kts | 129° |
| 2025-12-13 16:44 | 27.92389 | 86.19752 | 18708 ft | 147 kts | 129° |
| 2025-12-13 16:44 | 27.91091 | 86.21543 | 18716 ft | 147 kts | 129° |
| 2025-12-13 16:45 | 27.89721 | 86.23273 | 18699 ft | 148 kts | 132° |
| 2025-12-13 16:46 | 27.86911 | 86.26782 | 18696 ft | 150 kts | 132° |
| 2025-12-13 16:46 | 27.86212 | 86.27655 | 18699 ft | 149 kts | 132° |
| 2025-12-13 16:46 | 27.84813 | 86.29315 | 18692 ft | 146 kts | 134° |
| 2025-12-13 16:47 | 27.83398 | 86.30977 | 18692 ft | 148 kts | 134° |
| 2025-12-13 16:47 | 27.81958 | 86.32672 | 18692 ft | 149 kts | 134° |
| 2025-12-13 16:48 | 27.81240 | 86.33516 | 18693 ft | 149 kts | 134° |
| 2025-12-13 16:48 | 27.79088 | 86.36041 | 18709 ft | 148 kts | 134° |
| 2025-12-13 16:49 | 27.78367 | 86.36888 | 18693 ft | 150 kts | 134° |
| 2025-12-13 16:49 | 27.76923 | 86.38593 | 18692 ft | 149 kts | 134° |
| 2025-12-13 16:50 | 27.74836 | 86.41136 | 18693 ft | 149 kts | 132° |
| 2025-12-13 16:50 | 27.73431 | 86.42849 | 18694 ft | 150 kts | 133° |
| 2025-12-13 16:51 | 27.72126 | 86.44676 | 18686 ft | 151 kts | 123° |
| 2025-12-13 16:51 | 27.70958 | 86.46581 | 18692 ft | 147 kts | 132° |
| 2025-12-13 16:52 | 27.70239 | 86.47408 | 18686 ft | 146 kts | 137° |
| 2025-12-13 16:52 | 27.68793 | 86.48994 | 18685 ft | 145 kts | 136° |
| 2025-12-13 16:53 | 27.66619 | 86.51409 | 18676 ft | 148 kts | 136° |
| 2025-12-13 16:53 | 27.65889 | 86.52210 | 18676 ft | 148 kts | 137° |
| 2025-12-13 16:54 | 27.63592 | 86.54538 | 18676 ft | 149 kts | 142° |
| 2025-12-13 16:54 | 27.62014 | 86.56017 | 18669 ft | 146 kts | 142° |
| 2025-12-13 16:55 | 27.61041 | 86.57862 | 18666 ft | 147 kts | 71° |
| 2025-12-13 16:55 | 27.61987 | 86.59804 | 18302 ft | 147 kts | 61° |
| 2025-12-13 16:56 | 27.62285 | 86.60975 | 17616 ft | 158 kts | 84° |
| 2025-12-13 16:56 | 27.61603 | 86.63230 | 16619 ft | 150 kts | 125° |
| 2025-12-13 16:57 | 27.61622 | 86.65362 | 15465 ft | 152 kts | 60° |
| 2025-12-13 16:57 | 27.62792 | 86.68117 | 13959 ft | 158 kts | 1° |
| 2025-12-13 16:59 | 27.66524 | 86.69430 | 10568 ft | 101 kts | 46° |
| 2025-12-13 16:59 | 27.67669 | 86.70713 | 10493 ft | 127 kts | 56° |
| 2025-12-13 17:00 | 27.68371 | 86.72436 | 10487 ft | 115 kts | 41° |
| 2025-12-13 17:00 | 27.69594 | 86.71926 | 11129 ft | 96 kts | 291° |
| 2025-12-13 17:01 | 27.68619 | 86.71043 | 11008 ft | 137 kts | 188° |
| 2025-12-13 17:01 | 27.66984 | 86.70732 | 11374 ft | 119 kts | 177° |
| 2025-12-13 17:02 | 27.65289 | 86.70933 | 11734 ft | 117 kts | 170° |